Mullion, United Kingdom
Current Conditions -  °F | °C
As of 9:50 AM on Wednesday 22 Oct 2014 (Local Time) from EGDR Reporting Station
Haze Haze  
Wind Chill: 54°   Ceiling: 24000
Heat Index: 54°   Visibility: 6mi
Dew Point: 43°   Wind: 9mph
Humidity: 67%   Direction: 280°W
Pressure: 30.39"   Gusts: NA
Location:  50.03°N, 5.24°W
Report Text: EGDR 220850Z 28008KT 9999 HZ FEW024 SCT032 BKN240 12/06 Q1029 BLU NOSIG
Loading
Personal Weather Stations






























Interactive Weather Map
Tropical Storm Tracking
New forecast layout! Learn more

10-Day Weather Forecast

Advertisements
Track Severe Weather on mobile